METAR Reports From Nearby Airports

 

KLUD - Decatur, Texas, USA
Distance from Wildwood: ESE 5mi, 8km
Updated: May 23, 2017 9:35am
Overcast
Overcast
 Wind from NNW
Wind: NNW 10 mph , 17 km/h
Temperature: 64°F , 18°C
Dew Point: 61°F , 16°C
Humidity: 88%
Barometer: 29.94 inHg , 1013.9 hPa
Clouds: Overcast
Visibility: 10 miles , 16 km
Cloud details: Partly Cloudy 400 ft
Mostly Cloudy 2300 ft
Overcast 2700 ft
2017/05/23 14:35 KLUD 231435Z AUTO 33009KT 10SM SCT004 BKN023 OVC027 18/16 A2994 RMK AO2 T01780158
KXBP - Bridgeport, Texas, USA
Distance from Wildwood: WSW 11mi, 18km
Updated: May 23, 2017 9:35am
Nearby thunderstorm, Overcast
Nearby thunderstorm, Overcast
 Wind from N
Wind: N 9 mph , 15 km/h
Temperature: 66°F , 19°C
Dew Point: 59°F , 15°C
Humidity: 78%
Barometer: 29.96 inHg , 1014.6 hPa
Summary: Nearby Thunderstorm
Clouds: Overcast
Visibility: 10 miles , 16 km
Cloud details: Partly Cloudy 1400 ft
Mostly Cloudy 2200 ft
Overcast 2800 ft
2017/05/23 14:35 KXBP 231435Z AUTO 36008KT 10SM VCTS SCT014 BKN022 OVC028 19/15 A2996 RMK AO2 LTG DSNT E AND SE T01860145
 
K0F2 - Bowie, Texas, USA
Distance from Wildwood: NNW 24mi, 39km
Updated: May 23, 2017 9:35am
Mostly Cloudy
Mostly Cloudy
 Wind from NNW
Wind: NNW 7 mph , 11 km/h
Temperature: 64°F , 18°C
Dew Point: 63°F , 17°C
Humidity: 94%
Barometer: 29.96 inHg , 1014.6 hPa
Clouds: Mostly Cloudy
Visibility: 10 miles , 16 km
Cloud details: Mostly Cloudy 1100 ft
2017/05/23 14:35 K0F2 231435Z AUTO 33006KT 10SM BKN011 18/17 A2996 RMK AO2 LTG DSNT SE AND S T01760171
KDTO - Denton, Texas, USA
Distance from Wildwood: E 27mi, 44km
Updated: May 23, 2017 9:40am
Overcast
Overcast
 Wind from NW
Wind: NW 13 mph , 20 km/h
Temperature: 64°F , 18°C
Dew Point: 63°F , 17°C
Humidity: 94%
Clouds: Overcast
Visibility: 10 miles , 16 km
Cloud details: Mostly Cloudy 1200 ft
Overcast 2700 ft
2017/05/23 14:40 KDTO 231440Z 32011KT 10SM BKN012 OVC027 18/17 RMK AO2 LTG DSNT S T01830172 $
 
KAFW - Ft Worth/Allianc, Texas, USA
Distance from Wildwood: SE 29mi, 46km
Updated: May 23, 2017 9:37am
Overcast
Overcast
 Wind from NNW
Wind: NNW 5 mph , 7 km/h
Temperature: 66°F , 19°C
Dew Point: 63°F , 17°C
Humidity: 88%
Barometer: 29.92 inHg , 1013.2 hPa
Clouds: Overcast
Visibility: 10 miles , 16 km
Cloud details: Partly Cloudy 1000 ft
Mostly Cloudy 1500 ft
Mostly Cloudy 6000 ft
Overcast 25000 ft
2017/05/23 14:37 KAFW 231437Z 34004KT 10SM SCT010 BKN015 BKN060 OVC250 19/17 A2992 RMK AO2 LTG DSNT SE AND S CB DSNT SE-S MOV SE T01890172 $
KFTW - Fort Worth, Texas, USA
Distance from Wildwood: SSE 34mi, 55km
Updated: May 23, 2017 9:04am
Nearby thunderstorm, Overcast
Nearby thunderstorm, Overcast
 Wind from calm
Wind: Calm
Temperature: 68°F , 20°C
Dew Point: 64°F , 18°C
Humidity: 88%
Barometer: 29.91 inHg , 1012.9 hPa
Summary: Nearby Thunderstorm
Clouds: Overcast
Visibility: 9 miles , 14 km
Cloud details: Mostly Cloudy 1000 ft
Overcast 2700 ft
2017/05/23 14:04 KFTW 231404Z 00000KT 9SM VCTS BKN010 OVC027 20/18 A2991 RMK AO2 LTG DSNT SE-SW T02000178
 
KNFW - Fort Worth Nas, Texas, USA
Distance from Wildwood: SSE 36mi, 58km
Updated: May 23, 2017 8:52am
Thunderstorm, Mostly cloudy
Thunderstorm, Mostly cloudy
 Wind from W
Wind: W 5 mph , 7 km/h
Temperature: 68°F , 20°C
Dew Point: 64°F , 18°C
Humidity: 88%
Barometer: 29.91 inHg , 1012.9 hPa
Summary: Thunderstorm
Clouds: Mostly Cloudy
Visibility: 10 miles , 16 km
Cloud details: Partly Cloudy 1100 ft
Mostly Cloudy 3400 ft
Mostly Cloudy 7000 ft
2017/05/23 13:52 KNFW 231352Z 27004KT 10SM TS SCT011CB BKN034 BKN070 20/18 A2991 RMK AO2 TSE33B42 SLP113 OCNL LTG OCCCCG W TS W MOVG E T02000178 $
KGLE - Gainesville, Texas, USA
Distance from Wildwood: NE 38mi, 61km
Updated: May 23, 2017 9:35am
Mostly Cloudy
Mostly Cloudy
 Wind from N
Wind: N 7 mph , 11 km/h
Temperature: 64°F , 18°C
Dew Point: 61°F , 16°C
Humidity: 88%
Barometer: 29.95 inHg , 1014.2 hPa
Clouds: Mostly Cloudy
Visibility: 10 miles , 16 km
Cloud details: Partly Cloudy 3200 ft
Partly Cloudy 4000 ft
Mostly Cloudy 6500 ft
2017/05/23 14:35 KGLE 231435Z AUTO 01006KT 10SM SCT032 SCT040 BKN065 18/16 A2995 RMK AO2 P0002 T01770161
 
KMWL - Mineral Wells, Texas, USA
Distance from Wildwood: SW 41mi, 65km
Updated: May 23, 2017 8:53am
Light rain, Mist, Overcast
Light rain, Mist, Overcast
 Wind from NW
Wind: NW 12 mph , 19 km/h
Temperature: 63°F , 17°C
Dew Point: 63°F , 17°C
Humidity: 100%
Barometer: 29.94 inHg , 1013.9 hPa
Summary: Light rain, Mist
Clouds: Overcast
Visibility: 4 miles , 6 km
Cloud details: Overcast 600 ft
2017/05/23 13:53 KMWL 231353Z AUTO 32010KT 4SM -RA BR OVC006 17/17 A2994 RMK AO2 LTG DSNT E AND SE RAB18 CIG 005V010 SLP127 P0000 T01720167
KDFW - Dallas/Ft Worth, Texas, USA
Distance from Wildwood: ESE 45mi, 73km
Updated: May 23, 2017 9:08am
Overcast
Overcast
 Wind from calm
Wind: Calm
Temperature: 68°F , 20°C
Dew Point: 64°F , 18°C
Humidity: 88%
Barometer: 29.90 inHg , 1012.5 hPa
Clouds: Overcast
Visibility: 10 miles , 16 km
Cloud details: Mostly Cloudy 1000 ft
Overcast 2900 ft
2017/05/23 14:08 KDFW 231408Z 00000KT 10SM BKN010 OVC029 20/18 A2990 RMK AO2 LTG DSNT S AND SW RAE1357 P0000 T02000178 $